Terminal Aerodrome Forecast
Issued by NWS Sterling, VA

Current Version | Previous Version | Graphics & Text | Print | Product List | Glossary On
Versions: 1 2 3 4 5 6 7 8 9 10 11 12 13 14 15 16 17 18 19 20
000
FTUS41 KLWX 210500 RRA
TAFMRB
TAF
KMRB 210541Z 2106/2206 00000KT P6SM OVC110
     FM210900 VRB03KT P6SM BKN045
     FM211000 VRB03KT 5SM BR BKN025
     FM211500 13005KT P6SM SCT025 BKN050=

USA.gov is the U.S. government's official web portal to all federal, state and local government web resources and services.